Astronaut Kent Rominger Information

FAA: RCV - ICAO: KRCV

Astronaut Kent Rominger (Airport) Location

State Colorado
County Rio Grande
City Del Norte
Astronaut Kent Rominger (Airport) is 3 miles north of Del Norte, CO.
Latitude 37-42-49.6217N
Longitude 106-21-07.2666W
Elevation 7,955ft

Astronaut Kent Rominger METARs

METAR KRCV 261155Z AUTO 28010KT 10SM CLR 06/M06 A3028 RMK AO2 T00581062 10123 20050
Altimeter 30.28"
Temperature 5.8°C (42.4°F)
Wind 280° at 10KT
Clouds Skies are clear.
Visibility 10.0mi
Time observed: 2022-05-26T11:55:00Z

Astronaut Kent Rominger (Airport) Details

Status Operational
Activation May 1947
Ownership Public
Usage Public
Chart DENVER
ATC on-site No
Beacon schedule sunset-sunrise
Beacon color clear green

Astronaut Kent Rominger (Airport) Contacts

Owner RIO GRANDE COUNTY
Owner address 925 6TH STREET, RM 207, DEL NORTE, CO 81132
Owner phone 719-657-2744
Manager ALL-PRO BROADCASTING INC
Manager address 161 N. LA BRAE AVE, INGLEWOOD, CA 90301
Manager phone 213-330-3100

Astronaut Kent Rominger Radio Frequencies

Astronaut Kent Rominger (Airport) Radio Frequencies

UNICOM N/A
Common traffic advisory frequency (CTAF) 122.9